Terminal Aerodrome Forecast
Issued by NWS La Crosse, WI

Home | Current Version | Previous Version | Text Only | Print | Product List | Glossary On
Versions: 1 2 3 4 5 6 7 8 9 10 11 12 13 14 15 16 17 18 19 20 21 22 23 24 25 26 27 28 29 30 31 32 33 34 35 36 37 38 39 40 41 42
000
FTUS43 KARX 261120
TAFLSE
TAF
KLSE 261120Z 2612/2712 VRB03KT 3SM BR SCT070
      TEMPO 2612/2615 3/4SM BR SCT003
     FM261500 VRB03KT 6SM BR SCT050
     FM261800 33006KT P6SM OVC015
     FM270000 35005KT 5SM BR OVC008
     FM270500 34005KT 4SM -SN BR OVC006
     FM270700 34005KT 2SM -SN BR OVC006=

USA.gov is the U.S. government's official web portal to all federal, state and local government web resources and services.